createdAt,value
2018-10-18T00:01:41.783Z,17.87
2018-10-18T00:04:12.032Z,19.03
2018-10-18T00:06:41.092Z,18.43
2018-10-18T00:09:11.577Z,19.23
2018-10-18T00:11:40.812Z,18.10
2018-10-18T00:14:10.072Z,17.07
2018-10-18T00:16:39.204Z,17.73
2018-10-18T00:19:08.423Z,17.00
2018-10-18T00:21:37.670Z,17.63
2018-10-18T00:24:06.976Z,18.60
2018-10-18T00:26:36.323Z,17.67
2018-10-18T00:29:05.515Z,18.53
2018-10-18T00:31:34.593Z,19.00
2018-10-18T00:34:03.695Z,18.23
2018-10-18T00:36:32.719Z,17.30
2018-10-18T00:39:01.681Z,18.17
2018-10-18T00:41:30.760Z,17.60
2018-10-18T00:43:59.918Z,18.57
2018-10-18T00:46:29.060Z,19.30
2018-10-18T00:48:58.175Z,18.70
2018-10-18T00:51:27.368Z,18.63
2018-10-18T00:53:56.478Z,17.53
2018-10-18T00:56:25.628Z,19.23
2018-10-18T00:58:54.728Z,18.90
2018-10-18T01:01:23.845Z,18.00
2018-10-18T01:03:53.088Z,18.10
2018-10-18T01:06:22.144Z,18.13
2018-10-18T01:08:51.215Z,18.27
2018-10-18T01:11:20.585Z,17.20
2018-10-18T01:13:49.792Z,17.60
2018-10-18T01:16:18.872Z,17.77
2018-10-18T01:18:48.028Z,17.23
2018-10-18T01:21:17.132Z,17.70
2018-10-18T01:23:46.084Z,18.03
2018-10-18T01:26:15.301Z,17.57
2018-10-18T01:28:44.284Z,17.33
2018-10-18T01:31:13.384Z,17.47
2018-10-18T01:33:42.642Z,16.80
2018-10-18T01:36:11.827Z,18.37
2018-10-18T01:38:41.089Z,17.27
2018-10-18T01:41:10.265Z,17.37
2018-10-18T01:43:39.477Z,18.50
2018-10-18T01:46:08.604Z,18.33
2018-10-18T01:48:37.677Z,17.23
2018-10-18T01:51:06.858Z,17.13
2018-10-18T01:53:35.969Z,16.57
2018-10-18T01:56:05.155Z,16.77
2018-10-18T01:58:34.272Z,16.37
2018-10-18T02:01:03.543Z,16.50
2018-10-18T02:03:32.861Z,18.00
2018-10-18T02:06:02.068Z,17.03
2018-10-18T02:08:31.259Z,16.97
2018-10-18T02:11:00.373Z,16.77
2018-10-18T02:13:29.537Z,17.50
2018-10-18T02:15:58.551Z,16.50
2018-10-18T02:18:27.656Z,18.40
2018-10-18T02:20:56.836Z,15.77
2018-10-18T02:23:25.970Z,16.50
2018-10-18T02:25:55.892Z,17.47
2018-10-18T02:28:24.915Z,16.63
2018-10-18T02:30:53.920Z,15.57
2018-10-18T02:33:22.913Z,16.83
2018-10-18T02:35:52.054Z,17.13
2018-10-18T02:38:21.384Z,16.77
2018-10-18T02:40:50.499Z,17.33
2018-10-18T02:43:19.707Z,16.63
2018-10-18T02:45:48.793Z,17.23
2018-10-18T02:48:18.027Z,16.13
2018-10-18T02:50:46.985Z,16.17
2018-10-18T02:53:16.002Z,16.50
2018-10-18T02:55:45.077Z,16.83
2018-10-18T02:58:14.026Z,17.13
2018-10-18T03:00:43.197Z,15.67
2018-10-18T03:03:12.327Z,17.70
2018-10-18T03:05:41.327Z,15.87
2018-10-18T03:08:10.436Z,16.30
2018-10-18T03:10:39.559Z,17.00
2018-10-18T03:13:08.656Z,16.20
2018-10-18T03:15:37.927Z,16.83
2018-10-18T03:18:07.351Z,16.00
2018-10-18T03:20:36.432Z,16.00
2018-10-18T03:23:05.957Z,16.83
2018-10-18T03:25:34.927Z,17.13
2018-10-18T03:28:04.020Z,16.53
2018-10-18T03:30:33.967Z,16.30
2018-10-18T03:33:03.222Z,16.53
2018-10-18T03:35:32.315Z,16.83
2018-10-18T03:38:01.436Z,16.47
2018-10-18T03:40:30.543Z,16.70
2018-10-18T03:42:59.704Z,17.23
2018-10-18T03:45:28.975Z,17.40
2018-10-18T03:47:58.224Z,17.13
2018-10-18T03:50:27.328Z,16.53
2018-10-18T03:52:56.469Z,34.90
2018-10-18T03:55:25.591Z,23.90
2018-10-18T03:57:54.784Z,18.03
2018-10-18T04:00:23.621Z,16.00
2018-10-18T04:02:52.433Z,15.00
2018-10-18T04:05:21.298Z,15.70
2018-10-18T04:07:50.144Z,16.57
2018-10-18T04:10:18.980Z,17.70
2018-10-18T04:12:47.836Z,17.40
2018-10-18T04:15:16.913Z,16.73
2018-10-18T04:17:45.932Z,17.27
2018-10-18T04:20:14.897Z,16.07
2018-10-18T04:22:43.997Z,16.80
2018-10-18T04:25:13.083Z,18.00
2018-10-18T04:27:42.341Z,18.13
2018-10-18T04:30:11.607Z,17.70
2018-10-18T04:32:40.704Z,17.70
2018-10-18T04:35:09.696Z,16.67
2018-10-18T04:37:38.764Z,16.37
2018-10-18T04:40:08.004Z,18.20
2018-10-18T04:42:37.184Z,17.73
2018-10-18T04:45:07.397Z,17.33
2018-10-18T04:47:36.677Z,16.67
2018-10-18T04:50:06.136Z,16.27
2018-10-18T04:52:35.438Z,16.90
2018-10-18T04:55:05.083Z,16.50
2018-10-18T04:57:34.201Z,16.90
2018-10-18T05:00:03.382Z,16.50
2018-10-18T05:02:32.547Z,15.90
2018-10-18T05:05:12.487Z,16.50
2018-10-18T05:07:41.612Z,16.63
2018-10-18T05:10:10.816Z,16.17
2018-10-18T05:12:39.993Z,15.90
2018-10-18T05:15:09.561Z,16.63
2018-10-18T05:17:38.765Z,15.83
2018-10-18T05:20:07.897Z,15.60
2018-10-18T05:22:37.008Z,14.33
2018-10-18T05:25:06.348Z,16.10
2018-10-18T05:27:35.305Z,14.67
2018-10-18T05:30:04.745Z,16.73
2018-10-18T05:32:33.804Z,16.37
2018-10-18T05:35:02.625Z,16.03
2018-10-18T05:37:31.714Z,16.17
2018-10-18T05:40:01.196Z,15.73
2018-10-18T05:42:30.211Z,14.70
2018-10-18T05:44:59.387Z,15.53
2018-10-18T05:47:28.472Z,16.37
2018-10-18T05:49:57.484Z,21.70
2018-10-18T05:52:26.622Z,26.43
2018-10-18T05:54:55.976Z,17.93
2018-10-18T05:57:25.240Z,15.80
2018-10-18T05:59:54.333Z,16.30
2018-10-18T06:02:23.553Z,16.87
2018-10-18T06:04:52.430Z,16.90
2018-10-18T06:07:21.680Z,16.83
2018-10-18T06:09:51.112Z,16.80
2018-10-18T06:12:20.127Z,16.50
2018-10-18T06:14:49.272Z,15.70
2018-10-18T06:17:18.428Z,15.67
2018-10-18T06:19:47.349Z,15.27
2018-10-18T06:22:16.338Z,14.63
2018-10-18T06:24:45.521Z,15.37
2018-10-18T06:27:14.627Z,14.80
2018-10-18T06:29:43.811Z,14.40
2018-10-18T06:32:12.952Z,14.27
2018-10-18T06:34:41.793Z,16.67
2018-10-18T06:37:10.713Z,29.13
2018-10-18T06:39:39.536Z,16.17
2018-10-18T06:42:08.614Z,15.33
2018-10-18T06:44:37.969Z,14.83
2018-10-18T06:47:07.232Z,17.03
2018-10-18T06:49:36.447Z,16.93
2018-10-18T06:52:05.915Z,15.70
2018-10-18T06:54:35.061Z,16.90
2018-10-18T06:57:04.099Z,17.40
2018-10-18T06:59:33.264Z,16.97
2018-10-18T07:02:02.393Z,17.10
2018-10-18T07:04:31.289Z,17.90
2018-10-18T07:07:00.527Z,16.83
2018-10-18T07:09:29.676Z,16.20
2018-10-18T07:11:58.939Z,16.17
2018-10-18T07:14:28.244Z,16.40
2018-10-18T07:16:57.491Z,16.83
2018-10-18T07:19:26.712Z,17.23
2018-10-18T07:21:56.065Z,19.13
2018-10-18T07:24:25.205Z,17.33
2018-10-18T07:26:54.040Z,18.30
2018-10-18T07:29:23.308Z,19.40
2018-10-18T07:31:52.527Z,20.13
2018-10-18T07:34:21.667Z,17.33
2018-10-18T07:36:50.772Z,18.47
2018-10-18T07:39:19.868Z,18.43
2018-10-18T07:41:48.994Z,19.17
2018-10-18T07:44:18.064Z,18.80
2018-10-18T07:46:47.279Z,18.73
2018-10-18T07:49:16.378Z,18.27
2018-10-18T07:51:45.388Z,18.77
2018-10-18T07:54:14.571Z,19.13
2018-10-18T07:56:43.668Z,19.20
2018-10-18T07:59:12.769Z,19.33
2018-10-18T08:01:42.044Z,20.03
2018-10-18T08:04:11.223Z,19.17
2018-10-18T08:06:40.439Z,21.53
2018-10-18T08:09:12.187Z,18.17
2018-10-18T08:11:41.570Z,18.03
2018-10-18T08:14:11.088Z,18.23
2018-10-18T08:16:40.307Z,18.00
2018-10-18T08:19:09.692Z,18.30
2018-10-18T08:21:39.019Z,18.83
2018-10-18T08:24:08.136Z,17.87
2018-10-18T08:26:37.395Z,18.77
2018-10-18T08:29:06.595Z,18.37
2018-10-18T08:31:35.916Z,18.73
2018-10-18T08:34:05.085Z,18.23
2018-10-18T08:36:34.212Z,18.67
2018-10-18T08:39:04.036Z,19.07
2018-10-18T08:41:33.223Z,16.80
2018-10-18T08:44:02.316Z,40.37
2018-10-18T08:46:31.504Z,18.77
2018-10-18T08:49:00.655Z,17.67
2018-10-18T08:51:29.947Z,16.47
2018-10-18T08:53:59.120Z,16.27
2018-10-18T08:56:28.372Z,16.03
2018-10-18T08:58:57.494Z,14.90
2018-10-18T09:01:26.728Z,16.03
2018-10-18T09:03:55.907Z,15.73
2018-10-18T09:06:25.138Z,15.60
2018-10-18T09:08:54.313Z,15.90
2018-10-18T09:11:23.477Z,15.57
2018-10-18T09:13:52.607Z,16.93
2018-10-18T09:16:21.804Z,15.03
2018-10-18T09:18:50.972Z,16.27
2018-10-18T09:21:20.139Z,14.83
2018-10-18T09:23:49.294Z,14.97
2018-10-18T09:26:18.573Z,14.97
2018-10-18T09:28:48.018Z,15.23
2018-10-18T09:31:17.325Z,13.90
2018-10-18T09:33:46.467Z,15.30
2018-10-18T09:36:15.524Z,15.47
2018-10-18T09:38:44.531Z,15.37
2018-10-18T09:41:13.744Z,14.90
2018-10-18T09:43:42.859Z,15.07
2018-10-18T09:46:12.140Z,15.23
2018-10-18T09:48:41.333Z,13.87
2018-10-18T09:51:10.536Z,13.90
2018-10-18T09:53:39.633Z,14.33
2018-10-18T09:56:08.786Z,14.60
2018-10-18T09:58:37.905Z,14.87
2018-10-18T10:01:12.236Z,14.90
2018-10-18T10:03:41.426Z,15.20
2018-10-18T10:06:10.517Z,15.97
2018-10-18T10:08:39.496Z,16.87
2018-10-18T10:11:08.503Z,15.30
2018-10-18T10:13:37.620Z,14.70
2018-10-18T10:16:06.803Z,13.57
2018-10-18T10:18:35.867Z,12.23
2018-10-18T10:21:05.089Z,14.67
2018-10-18T10:23:34.152Z,12.97
2018-10-18T10:26:03.544Z,12.67
2018-10-18T10:28:32.792Z,11.73
2018-10-18T10:31:02.005Z,12.57
2018-10-18T10:33:31.141Z,12.47
2018-10-18T10:36:00.242Z,11.47
2018-10-18T10:38:29.370Z,12.03
2018-10-18T10:40:58.699Z,11.13
2018-10-18T10:43:27.947Z,10.40
2018-10-18T10:45:57.380Z,11.37
2018-10-18T10:48:26.666Z,12.17
2018-10-18T10:50:55.725Z,10.77
2018-10-18T10:53:24.885Z,10.00
2018-10-18T10:55:54.044Z,10.43
2018-10-18T10:58:23.163Z,10.53
2018-10-18T11:01:11.174Z,11.83
2018-10-18T11:03:41.271Z,12.90
2018-10-18T11:06:10.771Z,13.60
2018-10-18T11:08:40.107Z,12.73
2018-10-18T11:11:09.696Z,12.27
2018-10-18T11:13:38.935Z,11.93
2018-10-18T11:16:08.277Z,12.93
2018-10-18T11:18:38.178Z,13.80
2018-10-18T11:21:08.436Z,11.47
2018-10-18T11:23:37.741Z,12.93
2018-10-18T11:26:07.018Z,11.40
2018-10-18T11:28:36.220Z,13.63
2018-10-18T11:31:05.508Z,11.73
2018-10-18T11:33:34.732Z,10.67
2018-10-18T11:36:03.986Z,11.40
2018-10-18T11:38:33.155Z,10.97
2018-10-18T11:41:02.524Z,10.63
2018-10-18T11:43:31.514Z,10.57
2018-10-18T11:46:00.652Z,11.17
2018-10-18T11:48:29.695Z,10.87
2018-10-18T11:50:58.835Z,10.10
2018-10-18T11:53:28.098Z,9.93
2018-10-18T11:55:57.268Z,9.93
2018-10-18T11:58:26.555Z,10.37
2018-10-18T12:00:55.909Z,10.10
2018-10-18T12:03:25.023Z,10.40
2018-10-18T12:05:54.105Z,9.97
2018-10-18T12:08:23.200Z,10.60
2018-10-18T12:10:52.244Z,9.90
2018-10-18T12:13:21.384Z,10.17
2018-10-18T12:15:50.592Z,9.97
2018-10-18T12:18:19.748Z,9.47
2018-10-18T12:20:49.051Z,10.13
2018-10-18T12:23:18.330Z,9.07
2018-10-18T12:25:47.543Z,9.73
2018-10-18T12:28:17.469Z,10.27
2018-10-18T12:30:46.560Z,10.63
2018-10-18T12:33:15.655Z,10.20
2018-10-18T12:35:44.820Z,9.77
2018-10-18T12:38:14.161Z,9.07
2018-10-18T12:40:43.122Z,9.97
2018-10-18T12:43:12.382Z,10.13
2018-10-18T12:45:41.629Z,9.77
2018-10-18T12:48:10.837Z,9.50
2018-10-18T12:50:39.961Z,9.27
2018-10-18T12:53:09.151Z,9.27
2018-10-18T12:55:38.364Z,9.50
2018-10-18T12:58:07.529Z,8.87
2018-10-18T13:00:36.737Z,9.77
2018-10-18T13:03:05.724Z,9.47
2018-10-18T13:05:34.936Z,9.70
2018-10-18T13:08:04.035Z,9.77
2018-10-18T13:10:33.269Z,10.63
2018-10-18T13:13:02.747Z,10.77
2018-10-18T13:15:32.012Z,9.90
2018-10-18T13:18:01.203Z,11.23
2018-10-18T13:20:30.417Z,11.97
2018-10-18T13:22:59.657Z,11.30
2018-10-18T13:25:28.949Z,10.83
2018-10-18T13:27:58.133Z,11.10
2018-10-18T13:30:27.199Z,11.37
2018-10-18T13:32:56.401Z,11.30
2018-10-18T13:35:25.724Z,12.00
2018-10-18T13:37:55.866Z,11.20
2018-10-18T13:40:25.112Z,12.30
2018-10-18T13:42:54.429Z,13.93
2018-10-18T13:45:23.648Z,16.70
2018-10-18T13:47:53.035Z,13.47
2018-10-18T13:50:22.237Z,11.40
2018-10-18T13:52:51.074Z,11.33
2018-10-18T13:55:20.033Z,11.83
2018-10-18T13:57:49.205Z,12.50
2018-10-18T14:00:22.212Z,11.97
2018-10-18T14:02:52.604Z,13.17
2018-10-18T14:05:21.963Z,13.23
2018-10-18T14:07:52.103Z,12.97
2018-10-18T14:10:20.963Z,12.13
2018-10-18T14:12:50.582Z,12.20
2018-10-18T14:15:19.740Z,12.17
2018-10-18T14:17:49.042Z,12.60
2018-10-18T14:20:18.320Z,13.33
2018-10-18T14:22:47.432Z,13.17
2018-10-18T14:25:16.460Z,13.43
2018-10-18T14:27:45.329Z,13.33
2018-10-18T14:30:14.839Z,12.97
2018-10-18T14:32:43.886Z,13.17
2018-10-18T14:35:13.457Z,13.00
2018-10-18T14:37:42.587Z,12.97
2018-10-18T14:40:12.560Z,13.07
2018-10-18T14:42:41.871Z,13.97
2018-10-18T14:45:11.199Z,12.60
2018-10-18T14:47:40.493Z,13.47
2018-10-18T14:50:11.988Z,13.20
2018-10-18T14:52:41.165Z,13.10
2018-10-18T14:55:10.488Z,13.13
2018-10-18T14:57:40.006Z,13.47
2018-10-18T15:00:10.776Z,13.07
2018-10-18T15:02:39.895Z,13.57
2018-10-18T15:05:10.385Z,13.87
2018-10-18T15:07:40.238Z,14.37
2018-10-18T15:10:11.320Z,13.33
2018-10-18T15:12:40.811Z,14.50
2018-10-18T15:15:11.092Z,15.97
2018-10-18T15:17:40.252Z,15.50
2018-10-18T15:20:10.481Z,15.57
2018-10-18T15:22:40.201Z,15.13
2018-10-18T15:25:10.222Z,15.37
2018-10-18T15:27:39.721Z,49.50
2018-10-18T15:30:10.039Z,19.17
2018-10-18T15:32:46.004Z,18.17
2018-10-18T15:35:15.359Z,16.47
2018-10-18T15:37:44.708Z,16.20
2018-10-18T15:40:13.564Z,15.33
2018-10-18T15:42:42.735Z,14.97
2018-10-18T15:45:12.238Z,20.47
2018-10-18T15:47:41.507Z,16.60
2018-10-18T15:50:11.095Z,14.70
2018-10-18T15:52:40.316Z,15.10
2018-10-18T15:55:09.805Z,16.13
2018-10-18T15:57:38.964Z,14.20
2018-10-18T16:00:09.563Z,14.10
2018-10-18T16:02:38.883Z,14.77
2018-10-18T16:05:08.302Z,14.00
2018-10-18T16:07:37.617Z,15.17
2018-10-18T16:10:07.721Z,14.53
2018-10-18T16:12:37.037Z,14.90
2018-10-18T16:15:07.090Z,14.53
2018-10-18T16:17:36.432Z,14.73
2018-10-18T16:20:06.498Z,14.70
2018-10-18T16:22:35.923Z,14.70
2018-10-18T16:25:05.238Z,15.20
2018-10-18T16:27:34.516Z,16.03
2018-10-18T16:30:03.471Z,15.00
2018-10-18T16:32:32.702Z,15.73
2018-10-18T16:35:01.740Z,16.37
2018-10-18T16:37:30.640Z,16.93
2018-10-18T16:39:59.825Z,16.70
2018-10-18T16:42:28.632Z,17.20
2018-10-18T16:44:57.786Z,15.73
2018-10-18T16:47:26.726Z,16.03
2018-10-18T16:49:55.976Z,15.40
2018-10-18T16:52:25.497Z,15.30
2018-10-18T16:54:54.396Z,15.23
2018-10-18T16:57:23.637Z,15.50
2018-10-18T16:59:52.747Z,54.30
2018-10-18T17:02:21.850Z,26.60
2018-10-18T17:04:51.056Z,25.73
2018-10-18T17:07:20.467Z,18.50
2018-10-18T17:09:49.751Z,15.23
2018-10-18T17:12:18.963Z,15.33
2018-10-18T17:14:48.232Z,27.73
2018-10-18T17:17:17.463Z,44.60
2018-10-18T17:19:46.700Z,29.63
2018-10-18T17:22:15.945Z,15.90
2018-10-18T17:24:45.062Z,15.50
2018-10-18T17:27:14.096Z,15.80
2018-10-18T17:29:45.748Z,15.33
2018-10-18T17:32:14.884Z,15.77
2018-10-18T17:34:44.172Z,15.63
2018-10-18T17:37:13.332Z,16.87
2018-10-18T17:39:42.481Z,16.27
2018-10-18T17:42:11.774Z,20.60
2018-10-18T17:44:40.966Z,21.97
2018-10-18T17:47:10.216Z,19.40
2018-10-18T17:49:39.356Z,18.60
2018-10-18T17:52:08.631Z,17.13
2018-10-18T17:54:37.894Z,24.13
2018-10-18T17:57:07.272Z,32.57
2018-10-18T17:59:36.201Z,17.87
2018-10-18T18:02:05.509Z,18.00
2018-10-18T18:04:34.537Z,25.50
2018-10-18T18:07:04.391Z,17.43
2018-10-18T18:09:33.229Z,16.37
2018-10-18T18:12:02.105Z,16.80
2018-10-18T18:14:31.218Z,17.37
2018-10-18T18:17:00.200Z,16.87
2018-10-18T18:19:29.105Z,15.67
2018-10-18T18:21:58.494Z,16.97
2018-10-18T18:24:27.704Z,16.97
2018-10-18T18:26:56.856Z,16.97
2018-10-18T18:29:25.895Z,16.73
2018-10-18T18:31:55.125Z,16.17
2018-10-18T18:34:24.392Z,15.67
2018-10-18T18:36:53.572Z,14.50
2018-10-18T18:39:22.645Z,14.53
2018-10-18T18:41:51.448Z,14.53
2018-10-18T18:44:20.291Z,15.30
2018-10-18T18:46:49.403Z,15.30
2018-10-18T18:49:18.207Z,15.37
2018-10-18T18:51:47.170Z,14.87
2018-10-18T18:54:16.328Z,14.83
2018-10-18T18:56:45.479Z,53.80
2018-10-18T18:59:14.566Z,48.23
2018-10-18T19:01:43.755Z,36.43
2018-10-18T19:04:12.889Z,18.90
2018-10-18T19:06:42.008Z,61.87
2018-10-18T19:09:11.174Z,56.83
2018-10-18T19:11:40.414Z,67.20
2018-10-18T19:14:09.957Z,64.73
2018-10-18T19:16:39.146Z,16.83
2018-10-18T19:19:08.275Z,62.50
2018-10-18T19:21:37.519Z,50.57
2018-10-18T19:24:06.830Z,15.37
2018-10-18T19:26:35.880Z,15.23
2018-10-18T19:29:04.976Z,61.50
2018-10-18T19:31:34.034Z,77.03
2018-10-18T19:34:03.307Z,27.27
2018-10-18T19:36:32.757Z,16.30
2018-10-18T19:39:01.764Z,15.20
2018-10-18T19:41:30.842Z,14.60
2018-10-18T19:44:00.191Z,14.67
2018-10-18T19:46:29.402Z,14.50
2018-10-18T19:48:58.604Z,14.43
2018-10-18T19:51:27.867Z,13.93
2018-10-18T19:53:57.278Z,13.90
2018-10-18T19:56:26.473Z,15.10
2018-10-18T19:58:56.344Z,14.67
2018-10-18T20:01:25.436Z,41.87
2018-10-18T20:03:54.460Z,86.40
2018-10-18T20:06:23.541Z,63.83
2018-10-18T20:08:52.545Z,26.73
2018-10-18T20:11:21.742Z,32.40
2018-10-18T20:13:50.816Z,34.17
2018-10-18T20:16:20.040Z,25.27
2018-10-18T20:18:49.254Z,15.33
2018-10-18T20:21:18.437Z,13.83
2018-10-18T20:23:47.444Z,14.93
2018-10-18T20:26:16.971Z,15.30
2018-10-18T20:28:45.847Z,14.43
2018-10-18T20:31:15.040Z,14.07
2018-10-18T20:33:44.085Z,14.40
2018-10-18T20:36:13.326Z,14.77
2018-10-18T20:38:42.487Z,18.43
2018-10-18T20:41:11.770Z,16.87
2018-10-18T20:43:40.997Z,17.97
2018-10-18T20:46:10.305Z,16.67
2018-10-18T20:48:39.416Z,17.70
2018-10-18T20:51:08.622Z,26.60
2018-10-18T20:53:37.803Z,27.90
2018-10-18T20:56:06.904Z,14.53
2018-10-18T20:58:35.851Z,14.07
2018-10-18T21:01:05.290Z,13.93
2018-10-18T21:03:34.280Z,13.67
2018-10-18T21:06:03.352Z,13.67
2018-10-18T21:08:32.440Z,15.53
2018-10-18T21:11:01.444Z,14.50
2018-10-18T21:13:30.414Z,14.53
2018-10-18T21:15:59.520Z,14.77
2018-10-18T21:18:28.653Z,13.93
2018-10-18T21:20:57.846Z,14.17
2018-10-18T21:23:27.014Z,13.90
2018-10-18T21:25:55.881Z,13.67
2018-10-18T21:28:24.739Z,13.80
2018-10-18T21:30:53.929Z,13.43
2018-10-18T21:33:23.118Z,13.80
2018-10-18T21:35:52.401Z,13.43
2018-10-18T21:38:21.263Z,13.77
2018-10-18T21:40:50.049Z,14.83
2018-10-18T21:43:19.295Z,13.50
2018-10-18T21:45:48.656Z,14.27
2018-10-18T21:48:18.013Z,14.33
2018-10-18T21:50:47.150Z,14.70
2018-10-18T21:53:16.145Z,14.70
2018-10-18T21:55:45.158Z,14.00
2018-10-18T21:58:14.320Z,13.63
2018-10-18T22:00:45.920Z,12.90
2018-10-18T22:03:14.887Z,13.83
2018-10-18T22:05:43.980Z,13.37
2018-10-18T22:08:13.072Z,12.63
2018-10-18T22:10:42.152Z,12.07
2018-10-18T22:13:11.405Z,12.07
2018-10-18T22:15:40.563Z,12.23
2018-10-18T22:18:09.744Z,13.17
2018-10-18T22:20:38.848Z,13.90
2018-10-18T22:23:08.177Z,13.83
2018-10-18T22:25:37.394Z,14.27
2018-10-18T22:28:06.680Z,14.43
2018-10-18T22:30:35.857Z,14.00
2018-10-18T22:33:05.400Z,13.23
2018-10-18T22:35:34.548Z,14.57
2018-10-18T22:38:03.767Z,14.13
2018-10-18T22:40:32.742Z,13.33
2018-10-18T22:43:01.860Z,13.27
2018-10-18T22:45:30.908Z,12.97
2018-10-18T22:47:59.927Z,12.83
2018-10-18T22:50:28.938Z,13.53
2018-10-18T22:52:57.991Z,14.20
2018-10-18T22:55:27.239Z,13.00
2018-10-18T22:57:56.420Z,13.53
2018-10-18T23:00:25.620Z,13.73
2018-10-18T23:02:54.760Z,13.40
2018-10-18T23:05:23.785Z,13.93
2018-10-18T23:07:52.762Z,13.27
2018-10-18T23:10:21.855Z,13.77
2018-10-18T23:12:50.723Z,13.77
2018-10-18T23:15:19.898Z,13.53
2018-10-18T23:17:49.052Z,13.70
2018-10-18T23:20:18.094Z,13.00
2018-10-18T23:22:47.234Z,12.07
2018-10-18T23:25:16.335Z,9.97
2018-10-18T23:27:45.566Z,9.37
2018-10-18T23:30:14.388Z,9.90
2018-10-18T23:32:43.550Z,10.77
2018-10-18T23:35:12.660Z,12.83
2018-10-18T23:37:41.607Z,11.57
2018-10-18T23:40:10.836Z,11.50
2018-10-18T23:42:40.047Z,11.60
2018-10-18T23:45:09.626Z,12.20
2018-10-18T23:47:38.770Z,12.80
2018-10-18T23:50:08.000Z,12.63
2018-10-18T23:52:37.132Z,12.40
2018-10-18T23:55:06.381Z,11.33
2018-10-18T23:57:35.201Z,10.50
